Terminal Aerodrome Forecast
Issued by NWS Key West, FL

Home | Current Version | Previous Version | Text Only | Print | Product List | Glossary On
Versions: 1 2 3 4 5 6 7 8 9 10 11 12 13 14 15 16 17 18 19 20 21 22 23
000
FTUS42 KKEY 301712 AAF
TAFEYW
TAF AMD
KEYW 301712Z 3017/3112 07005G12KT 5SM -TSRA FEW025 BKN030CB OVC200
     FM301730 VRB06KT P6SM VCTS SCT020CB BKN100
     FM301900 08005KT P6SM FEW025 BKN200=

USA.gov is the U.S. government's official web portal to all federal, state and local government web resources and services.